sensor_id;sensor_type;location;lat;lon;timestamp;P1;durP1;ratioP1;P2;durP2;ratioP2
56285;SDS011;42191;47.562;9.686;2023-02-28T00:01:19;45.90;;;42.92;;
56285;SDS011;42191;47.562;9.686;2023-02-28T00:03:45;46.13;;;43.10;;
56285;SDS011;42191;47.562;9.686;2023-02-28T00:06:11;45.88;;;42.88;;
56285;SDS011;42191;47.562;9.686;2023-02-28T00:08:37;43.60;;;40.75;;
56285;SDS011;42191;47.562;9.686;2023-02-28T00:11:09;46.05;;;43.08;;
56285;SDS011;42191;47.562;9.686;2023-02-28T00:13:37;47.33;;;44.22;;
56285;SDS011;42191;47.562;9.686;2023-02-28T00:16:08;45.65;;;42.65;;
56285;SDS011;42191;47.562;9.686;2023-02-28T00:18:36;46.53;;;43.40;;
56285;SDS011;42191;47.562;9.686;2023-02-28T00:21:03;45.53;;;42.63;;
56285;SDS011;42191;47.562;9.686;2023-02-28T00:23:30;46.08;;;43.13;;
56285;SDS011;42191;47.562;9.686;2023-02-28T00:25:56;46.63;;;43.42;;
56285;SDS011;42191;47.562;9.686;2023-02-28T00:28:22;45.97;;;42.97;;
56285;SDS011;42191;47.562;9.686;2023-02-28T00:30:49;45.67;;;42.67;;
56285;SDS011;42191;47.562;9.686;2023-02-28T00:33:15;46.85;;;43.85;;
56285;SDS011;42191;47.562;9.686;2023-02-28T00:35:41;46.17;;;43.10;;
56285;SDS011;42191;47.562;9.686;2023-02-28T00:38:08;47.35;;;44.25;;
56285;SDS011;42191;47.562;9.686;2023-02-28T00:40:35;45.75;;;42.83;;
56285;SDS011;42191;47.562;9.686;2023-02-28T00:43:01;46.35;;;43.25;;
56285;SDS011;42191;47.562;9.686;2023-02-28T00:45:28;44.88;;;41.90;;
56285;SDS011;42191;47.562;9.686;2023-02-28T00:47:54;45.45;;;42.33;;
56285;SDS011;42191;47.562;9.686;2023-02-28T00:50:20;47.05;;;44.03;;
56285;SDS011;42191;47.562;9.686;2023-02-28T00:52:46;48.80;;;45.40;;
56285;SDS011;42191;47.562;9.686;2023-02-28T00:55:13;46.47;;;43.47;;
56285;SDS011;42191;47.562;9.686;2023-02-28T00:57:39;45.50;;;42.53;;
56285;SDS011;42191;47.562;9.686;2023-02-28T01:00:06;46.75;;;43.22;;
56285;SDS011;42191;47.562;9.686;2023-02-28T01:02:33;45.53;;;42.58;;
56285;SDS011;42191;47.562;9.686;2023-02-28T01:04:59;45.78;;;42.78;;
56285;SDS011;42191;47.562;9.686;2023-02-28T01:07:25;45.08;;;42.17;;
56285;SDS011;42191;47.562;9.686;2023-02-28T01:09:51;45.40;;;42.50;;
56285;SDS011;42191;47.562;9.686;2023-02-28T01:12:17;47.05;;;44.05;;
56285;SDS011;42191;47.562;9.686;2023-02-28T01:14:43;46.78;;;43.78;;
56285;SDS011;42191;47.562;9.686;2023-02-28T01:17:10;44.42;;;41.63;;
56285;SDS011;42191;47.562;9.686;2023-02-28T01:19:36;42.95;;;40.03;;
56285;SDS011;42191;47.562;9.686;2023-02-28T01:22:03;47.08;;;44.00;;
56285;SDS011;42191;47.562;9.686;2023-02-28T01:24:30;46.67;;;43.67;;
56285;SDS011;42191;47.562;9.686;2023-02-28T01:26:56;45.00;;;42.10;;
56285;SDS011;42191;47.562;9.686;2023-02-28T01:29:22;47.80;;;44.70;;
56285;SDS011;42191;47.562;9.686;2023-02-28T01:31:48;46.28;;;43.28;;
56285;SDS011;42191;47.562;9.686;2023-02-28T01:34:15;47.22;;;44.13;;
56285;SDS011;42191;47.562;9.686;2023-02-28T01:36:44;44.92;;;42.03;;
56285;SDS011;42191;47.562;9.686;2023-02-28T01:39:10;48.08;;;44.92;;
56285;SDS011;42191;47.562;9.686;2023-02-28T01:41:38;45.20;;;42.20;;
56285;SDS011;42191;47.562;9.686;2023-02-28T01:44:05;47.85;;;44.75;;
56285;SDS011;42191;47.562;9.686;2023-02-28T01:46:51;47.20;;;44.05;;
56285;SDS011;42191;47.562;9.686;2023-02-28T01:49:18;47.08;;;43.88;;
56285;SDS011;42191;47.562;9.686;2023-02-28T01:51:51;46.65;;;43.22;;
56285;SDS011;42191;47.562;9.686;2023-02-28T01:54:22;45.42;;;42.42;;
56285;SDS011;42191;47.562;9.686;2023-02-28T01:56:53;47.83;;;44.72;;
56285;SDS011;42191;47.562;9.686;2023-02-28T01:59:29;46.15;;;43.15;;
56285;SDS011;42191;47.562;9.686;2023-02-28T02:02:09;45.65;;;42.67;;
56285;SDS011;42191;47.562;9.686;2023-02-28T02:04:40;46.13;;;43.13;;
56285;SDS011;42191;47.562;9.686;2023-02-28T02:07:13;45.00;;;41.85;;
56285;SDS011;42191;47.562;9.686;2023-02-28T02:09:40;47.85;;;44.72;;
56285;SDS011;42191;47.562;9.686;2023-02-28T02:12:20;46.40;;;43.33;;
56285;SDS011;42191;47.562;9.686;2023-02-28T02:15:11;46.78;;;43.78;;
56285;SDS011;42191;47.562;9.686;2023-02-28T02:17:45;46.70;;;43.70;;
56285;SDS011;42191;47.562;9.686;2023-02-28T02:28:22;47.20;;;44.13;;
56285;SDS011;42191;47.562;9.686;2023-02-28T02:36:51;47.05;;;44.05;;
56285;SDS011;42191;47.562;9.686;2023-02-28T02:39:34;43.72;;;40.92;;
56285;SDS011;42191;47.562;9.686;2023-02-28T02:44:40;45.63;;;42.63;;
56285;SDS011;42191;47.562;9.686;2023-02-28T02:47:17;46.15;;;43.05;;
56285;SDS011;42191;47.562;9.686;2023-02-28T02:52:14;46.70;;;43.63;;
56285;SDS011;42191;47.562;9.686;2023-02-28T02:54:44;47.00;;;44.00;;
56285;SDS011;42191;47.562;9.686;2023-02-28T02:57:23;46.47;;;43.47;;
56285;SDS011;42191;47.562;9.686;2023-02-28T03:00:02;46.58;;;43.63;;
56285;SDS011;42191;47.562;9.686;2023-02-28T03:02:33;46.25;;;43.25;;
56285;SDS011;42191;47.562;9.686;2023-02-28T03:05:04;46.83;;;43.83;;
56285;SDS011;42191;47.562;9.686;2023-02-28T03:07:46;47.72;;;44.42;;
56285;SDS011;42191;47.562;9.686;2023-02-28T03:10:55;47.30;;;44.20;;
56285;SDS011;42191;47.562;9.686;2023-02-28T03:15:52;48.95;;;45.75;;
56285;SDS011;42191;47.562;9.686;2023-02-28T03:18:39;47.08;;;43.97;;
56285;SDS011;42191;47.562;9.686;2023-02-28T03:23:52;47.42;;;44.38;;
56285;SDS011;42191;47.562;9.686;2023-02-28T03:26:31;46.97;;;43.92;;
56285;SDS011;42191;47.562;9.686;2023-02-28T03:32:08;47.92;;;44.80;;
56285;SDS011;42191;47.562;9.686;2023-02-28T03:34:50;47.70;;;44.63;;
56285;SDS011;42191;47.562;9.686;2023-02-28T03:37:29;48.03;;;44.90;;
56285;SDS011;42191;47.562;9.686;2023-02-28T03:40:04;47.75;;;44.65;;
56285;SDS011;42191;47.562;9.686;2023-02-28T03:42:39;45.17;;;42.28;;
56285;SDS011;42191;47.562;9.686;2023-02-28T03:45:18;46.33;;;43.30;;
56285;SDS011;42191;47.562;9.686;2023-02-28T03:47:56;46.30;;;43.30;;
56285;SDS011;42191;47.562;9.686;2023-02-28T03:50:36;47.95;;;44.83;;
56285;SDS011;42191;47.562;9.686;2023-02-28T03:53:18;48.35;;;45.05;;
56285;SDS011;42191;47.562;9.686;2023-02-28T03:56:00;46.42;;;43.42;;
56285;SDS011;42191;47.562;9.686;2023-02-28T03:58:42;46.65;;;43.65;;
56285;SDS011;42191;47.562;9.686;2023-02-28T04:01:25;48.42;;;45.35;;
56285;SDS011;42191;47.562;9.686;2023-02-28T04:04:00;48.03;;;44.78;;
56285;SDS011;42191;47.562;9.686;2023-02-28T04:06:27;47.28;;;44.20;;
56285;SDS011;42191;47.562;9.686;2023-02-28T04:08:55;46.25;;;43.25;;
56285;SDS011;42191;47.562;9.686;2023-02-28T04:11:23;46.80;;;43.70;;
56285;SDS011;42191;47.562;9.686;2023-02-28T04:13:55;46.90;;;43.83;;
56285;SDS011;42191;47.562;9.686;2023-02-28T04:16:24;47.08;;;44.08;;
56285;SDS011;42191;47.562;9.686;2023-02-28T04:18:50;46.78;;;43.78;;
56285;SDS011;42191;47.562;9.686;2023-02-28T04:21:19;48.03;;;44.92;;
56285;SDS011;42191;47.562;9.686;2023-02-28T04:23:45;47.42;;;44.25;;
56285;SDS011;42191;47.562;9.686;2023-02-28T04:26:12;47.95;;;44.75;;
56285;SDS011;42191;47.562;9.686;2023-02-28T04:28:38;46.40;;;43.30;;
56285;SDS011;42191;47.562;9.686;2023-02-28T04:31:04;46.10;;;42.97;;
56285;SDS011;42191;47.562;9.686;2023-02-28T04:33:31;46.13;;;43.00;;
56285;SDS011;42191;47.562;9.686;2023-02-28T04:36:05;46.05;;;43.05;;
56285;SDS011;42191;47.562;9.686;2023-02-28T04:38:33;49.28;;;45.95;;
56285;SDS011;42191;47.562;9.686;2023-02-28T04:41:01;44.50;;;41.60;;
56285;SDS011;42191;47.562;9.686;2023-02-28T04:43:28;47.30;;;44.30;;
56285;SDS011;42191;47.562;9.686;2023-02-28T04:45:55;46.42;;;43.35;;
56285;SDS011;42191;47.562;9.686;2023-02-28T04:48:22;46.95;;;43.90;;
56285;SDS011;42191;47.562;9.686;2023-02-28T04:50:49;47.45;;;43.90;;
56285;SDS011;42191;47.562;9.686;2023-02-28T04:53:16;48.15;;;44.95;;
56285;SDS011;42191;47.562;9.686;2023-02-28T04:55:43;49.40;;;45.60;;
56285;SDS011;42191;47.562;9.686;2023-02-28T04:58:09;46.28;;;43.10;;
56285;SDS011;42191;47.562;9.686;2023-02-28T05:00:35;47.65;;;44.45;;
56285;SDS011;42191;47.562;9.686;2023-02-28T05:03:02;48.65;;;45.47;;
56285;SDS011;42191;47.562;9.686;2023-02-28T05:05:28;46.05;;;43.03;;
56285;SDS011;42191;47.562;9.686;2023-02-28T05:07:54;45.03;;;42.13;;
56285;SDS011;42191;47.562;9.686;2023-02-28T05:10:21;45.72;;;42.72;;
56285;SDS011;42191;47.562;9.686;2023-02-28T05:12:48;46.08;;;43.05;;
56285;SDS011;42191;47.562;9.686;2023-02-28T05:15:15;47.05;;;43.75;;
56285;SDS011;42191;47.562;9.686;2023-02-28T05:17:42;47.63;;;44.25;;
56285;SDS011;42191;47.562;9.686;2023-02-28T05:20:09;51.20;;;47.35;;
56285;SDS011;42191;47.562;9.686;2023-02-28T05:22:36;48.55;;;45.10;;
56285;SDS011;42191;47.562;9.686;2023-02-28T05:25:02;48.88;;;45.55;;
56285;SDS011;42191;47.562;9.686;2023-02-28T05:27:32;47.80;;;44.63;;
56285;SDS011;42191;47.562;9.686;2023-02-28T05:29:58;46.92;;;43.72;;
56285;SDS011;42191;47.562;9.686;2023-02-28T05:32:27;48.53;;;45.33;;
56285;SDS011;42191;47.562;9.686;2023-02-28T05:34:53;45.42;;;42.33;;
56285;SDS011;42191;47.562;9.686;2023-02-28T05:37:22;48.45;;;45.25;;
56285;SDS011;42191;47.562;9.686;2023-02-28T05:39:48;46.75;;;43.55;;
56285;SDS011;42191;47.562;9.686;2023-02-28T05:42:14;46.50;;;43.50;;
56285;SDS011;42191;47.562;9.686;2023-02-28T05:44:40;46.50;;;43.40;;
56285;SDS011;42191;47.562;9.686;2023-02-28T05:47:07;49.05;;;45.75;;
56285;SDS011;42191;47.562;9.686;2023-02-28T05:49:36;47.78;;;44.58;;
56285;SDS011;42191;47.562;9.686;2023-02-28T05:52:02;50.95;;;47.15;;
56285;SDS011;42191;47.562;9.686;2023-02-28T05:54:31;48.78;;;45.47;;
56285;SDS011;42191;47.562;9.686;2023-02-28T05:56:59;46.45;;;43.35;;
56285;SDS011;42191;47.562;9.686;2023-02-28T05:59:26;48.22;;;44.72;;
56285;SDS011;42191;47.562;9.686;2023-02-28T06:01:52;47.75;;;44.58;;
56285;SDS011;42191;47.562;9.686;2023-02-28T06:04:19;48.33;;;45.03;;
56285;SDS011;42191;47.562;9.686;2023-02-28T06:06:46;48.03;;;44.72;;
56285;SDS011;42191;47.562;9.686;2023-02-28T06:09:17;49.45;;;46.03;;
56285;SDS011;42191;47.562;9.686;2023-02-28T06:12:15;48.15;;;44.95;;
56285;SDS011;42191;47.562;9.686;2023-02-28T06:14:42;48.55;;;45.25;;
56285;SDS011;42191;47.562;9.686;2023-02-28T06:17:11;47.85;;;44.55;;
56285;SDS011;42191;47.562;9.686;2023-02-28T06:19:38;47.20;;;43.88;;
56285;SDS011;42191;47.562;9.686;2023-02-28T06:22:06;47.15;;;43.97;;
56285;SDS011;42191;47.562;9.686;2023-02-28T06:24:41;48.03;;;44.88;;
56285;SDS011;42191;47.562;9.686;2023-02-28T06:27:30;46.92;;;43.72;;
56285;SDS011;42191;47.562;9.686;2023-02-28T06:29:57;48.35;;;45.15;;
56285;SDS011;42191;47.562;9.686;2023-02-28T06:32:24;50.63;;;47.22;;
56285;SDS011;42191;47.562;9.686;2023-02-28T06:34:50;47.92;;;44.78;;
56285;SDS011;42191;47.562;9.686;2023-02-28T06:37:17;46.78;;;43.58;;
56285;SDS011;42191;47.562;9.686;2023-02-28T06:39:43;47.47;;;43.90;;
56285;SDS011;42191;47.562;9.686;2023-02-28T06:42:09;47.97;;;44.78;;
56285;SDS011;42191;47.562;9.686;2023-02-28T06:44:35;49.53;;;46.22;;
56285;SDS011;42191;47.562;9.686;2023-02-28T06:47:03;49.78;;;46.40;;
56285;SDS011;42191;47.562;9.686;2023-02-28T06:49:31;49.97;;;46.63;;
56285;SDS011;42191;47.562;9.686;2023-02-28T06:51:58;46.65;;;43.35;;
56285;SDS011;42191;47.562;9.686;2023-02-28T06:54:24;47.80;;;44.60;;
56285;SDS011;42191;47.562;9.686;2023-02-28T06:56:50;47.08;;;43.95;;
56285;SDS011;42191;47.562;9.686;2023-02-28T06:59:16;49.30;;;46.00;;
56285;SDS011;42191;47.562;9.686;2023-02-28T07:01:43;48.83;;;45.53;;
56285;SDS011;42191;47.562;9.686;2023-02-28T07:04:09;49.15;;;45.85;;
56285;SDS011;42191;47.562;9.686;2023-02-28T07:06:35;47.25;;;44.08;;
56285;SDS011;42191;47.562;9.686;2023-02-28T07:09:01;47.45;;;44.33;;
56285;SDS011;42191;47.562;9.686;2023-02-28T07:11:28;46.92;;;43.63;;
56285;SDS011;42191;47.562;9.686;2023-02-28T07:13:55;48.63;;;45.38;;
56285;SDS011;42191;47.562;9.686;2023-02-28T07:16:21;48.38;;;45.15;;
56285;SDS011;42191;47.562;9.686;2023-02-28T07:18:49;47.83;;;44.47;;
56285;SDS011;42191;47.562;9.686;2023-02-28T07:21:17;47.38;;;44.15;;
56285;SDS011;42191;47.562;9.686;2023-02-28T07:23:43;46.10;;;43.00;;
56285;SDS011;42191;47.562;9.686;2023-02-28T07:26:11;46.05;;;42.88;;
56285;SDS011;42191;47.562;9.686;2023-02-28T07:28:39;48.03;;;44.83;;
56285;SDS011;42191;47.562;9.686;2023-02-28T07:31:07;47.22;;;43.83;;
56285;SDS011;42191;47.562;9.686;2023-02-28T07:33:34;45.95;;;42.85;;
56285;SDS011;42191;47.562;9.686;2023-02-28T07:36:03;47.05;;;43.85;;
56285;SDS011;42191;47.562;9.686;2023-02-28T07:38:33;46.10;;;42.92;;
56285;SDS011;42191;47.562;9.686;2023-02-28T07:41:00;45.92;;;42.83;;
56285;SDS011;42191;47.562;9.686;2023-02-28T07:43:29;45.60;;;42.38;;
56285;SDS011;42191;47.562;9.686;2023-02-28T07:46:00;45.67;;;42.70;;
56285;SDS011;42191;47.562;9.686;2023-02-28T07:48:31;45.30;;;42.30;;
56285;SDS011;42191;47.562;9.686;2023-02-28T07:50:57;45.80;;;42.70;;
56285;SDS011;42191;47.562;9.686;2023-02-28T07:53:24;48.75;;;45.45;;
56285;SDS011;42191;47.562;9.686;2023-02-28T07:55:54;45.45;;;42.35;;
56285;SDS011;42191;47.562;9.686;2023-02-28T07:58:21;46.42;;;43.33;;
56285;SDS011;42191;47.562;9.686;2023-02-28T08:00:47;47.13;;;43.92;;
56285;SDS011;42191;47.562;9.686;2023-02-28T08:03:13;46.30;;;43.10;;
56285;SDS011;42191;47.562;9.686;2023-02-28T08:05:40;45.53;;;42.55;;
56285;SDS011;42191;47.562;9.686;2023-02-28T08:08:06;45.10;;;42.05;;
56285;SDS011;42191;47.562;9.686;2023-02-28T08:10:33;47.80;;;44.60;;
56285;SDS011;42191;47.562;9.686;2023-02-28T08:12:59;47.03;;;43.72;;
56285;SDS011;42191;47.562;9.686;2023-02-28T08:15:25;46.15;;;43.00;;
56285;SDS011;42191;47.562;9.686;2023-02-28T08:18:12;45.85;;;42.75;;
56285;SDS011;42191;47.562;9.686;2023-02-28T08:20:38;46.92;;;43.83;;
56285;SDS011;42191;47.562;9.686;2023-02-28T08:23:04;45.88;;;42.88;;
56285;SDS011;42191;47.562;9.686;2023-02-28T08:25:30;47.28;;;44.00;;
56285;SDS011;42191;47.562;9.686;2023-02-28T08:27:56;46.63;;;43.22;;
56285;SDS011;42191;47.562;9.686;2023-02-28T08:30:22;44.75;;;41.75;;
56285;SDS011;42191;47.562;9.686;2023-02-28T08:32:48;46.63;;;43.38;;
56285;SDS011;42191;47.562;9.686;2023-02-28T08:35:15;46.78;;;43.67;;
56285;SDS011;42191;47.562;9.686;2023-02-28T08:37:41;45.75;;;42.75;;
56285;SDS011;42191;47.562;9.686;2023-02-28T08:40:07;45.97;;;42.78;;
56285;SDS011;42191;47.562;9.686;2023-02-28T08:42:34;44.20;;;41.30;;
56285;SDS011;42191;47.562;9.686;2023-02-28T08:45:00;46.55;;;43.42;;
56285;SDS011;42191;47.562;9.686;2023-02-28T08:47:26;46.28;;;43.13;;
56285;SDS011;42191;47.562;9.686;2023-02-28T08:49:53;45.65;;;42.45;;
56285;SDS011;42191;47.562;9.686;2023-02-28T08:52:19;45.20;;;42.10;;
56285;SDS011;42191;47.562;9.686;2023-02-28T08:54:45;44.42;;;41.40;;
56285;SDS011;42191;47.562;9.686;2023-02-28T08:57:11;45.53;;;42.45;;
56285;SDS011;42191;47.562;9.686;2023-02-28T08:59:37;45.65;;;42.55;;
56285;SDS011;42191;47.562;9.686;2023-02-28T09:02:03;43.35;;;40.38;;
56285;SDS011;42191;47.562;9.686;2023-02-28T09:04:29;43.85;;;40.92;;
56285;SDS011;42191;47.562;9.686;2023-02-28T09:06:55;45.45;;;42.35;;
56285;SDS011;42191;47.562;9.686;2023-02-28T09:09:22;45.40;;;42.40;;
56285;SDS011;42191;47.562;9.686;2023-02-28T09:11:48;44.65;;;41.55;;
56285;SDS011;42191;47.562;9.686;2023-02-28T09:14:14;44.78;;;41.80;;
56285;SDS011;42191;47.562;9.686;2023-02-28T09:16:42;44.65;;;41.55;;
56285;SDS011;42191;47.562;9.686;2023-02-28T09:19:10;45.70;;;42.63;;
56285;SDS011;42191;47.562;9.686;2023-02-28T09:21:37;44.10;;;41.20;;
56285;SDS011;42191;47.562;9.686;2023-02-28T09:24:03;44.47;;;41.53;;
56285;SDS011;42191;47.562;9.686;2023-02-28T09:26:29;46.85;;;43.65;;
56285;SDS011;42191;47.562;9.686;2023-02-28T09:28:56;44.50;;;41.58;;
56285;SDS011;42191;47.562;9.686;2023-02-28T09:31:24;44.55;;;41.47;;
56285;SDS011;42191;47.562;9.686;2023-02-28T09:33:53;44.97;;;41.97;;
56285;SDS011;42191;47.562;9.686;2023-02-28T09:36:21;46.15;;;43.05;;
56285;SDS011;42191;47.562;9.686;2023-02-28T09:38:48;50.33;;;42.00;;
56285;SDS011;42191;47.562;9.686;2023-02-28T09:43:47;43.20;;;40.15;;
56285;SDS011;42191;47.562;9.686;2023-02-28T09:49:16;45.20;;;42.20;;
56285;SDS011;42191;47.562;9.686;2023-02-28T09:51:47;45.00;;;42.03;;
56285;SDS011;42191;47.562;9.686;2023-02-28T09:54:19;44.92;;;42.03;;
56285;SDS011;42191;47.562;9.686;2023-02-28T09:56:55;45.33;;;42.30;;
56285;SDS011;42191;47.562;9.686;2023-02-28T10:05:12;46.28;;;43.13;;
56285;SDS011;42191;47.562;9.686;2023-02-28T10:13:04;45.42;;;42.42;;
56285;SDS011;42191;47.562;9.686;2023-02-28T10:15:46;44.72;;;41.72;;
56285;SDS011;42191;47.562;9.686;2023-02-28T10:18:16;46.00;;;43.00;;
56285;SDS011;42191;47.562;9.686;2023-02-28T10:21:23;43.10;;;40.20;;
56285;SDS011;42191;47.562;9.686;2023-02-28T10:24:05;43.50;;;40.60;;
56285;SDS011;42191;47.562;9.686;2023-02-28T10:26:50;44.55;;;41.55;;
56285;SDS011;42191;47.562;9.686;2023-02-28T10:29:21;43.10;;;40.20;;
56285;SDS011;42191;47.562;9.686;2023-02-28T10:31:48;46.03;;;42.83;;
56285;SDS011;42191;47.562;9.686;2023-02-28T10:34:14;44.17;;;41.28;;
56285;SDS011;42191;47.562;9.686;2023-02-28T10:36:40;43.78;;;40.78;;
56285;SDS011;42191;47.562;9.686;2023-02-28T10:42:28;45.13;;;42.13;;
56285;SDS011;42191;47.562;9.686;2023-02-28T10:47:32;46.63;;;43.53;;
56285;SDS011;42191;47.562;9.686;2023-02-28T10:50:01;45.67;;;42.58;;
56285;SDS011;42191;47.562;9.686;2023-02-28T10:52:39;44.53;;;41.53;;
56285;SDS011;42191;47.562;9.686;2023-02-28T10:55:18;46.20;;;43.15;;
56285;SDS011;42191;47.562;9.686;2023-02-28T10:57:47;43.88;;;40.80;;
56285;SDS011;42191;47.562;9.686;2023-02-28T11:00:15;43.63;;;40.72;;
56285;SDS011;42191;47.562;9.686;2023-02-28T11:02:42;44.47;;;41.47;;
56285;SDS011;42191;47.562;9.686;2023-02-28T11:05:23;46.20;;;43.10;;
56285;SDS011;42191;47.562;9.686;2023-02-28T11:07:54;42.28;;;39.35;;
56285;SDS011;42191;47.562;9.686;2023-02-28T11:10:23;44.53;;;41.60;;
56285;SDS011;42191;47.562;9.686;2023-02-28T11:12:54;43.40;;;40.50;;
56285;SDS011;42191;47.562;9.686;2023-02-28T11:15:28;44.85;;;41.88;;
56285;SDS011;42191;47.562;9.686;2023-02-28T11:17:58;42.13;;;39.25;;
56285;SDS011;42191;47.562;9.686;2023-02-28T11:20:37;43.92;;;40.85;;
56285;SDS011;42191;47.562;9.686;2023-02-28T11:23:04;42.88;;;40.03;;
56285;SDS011;42191;47.562;9.686;2023-02-28T11:25:37;44.65;;;41.65;;
56285;SDS011;42191;47.562;9.686;2023-02-28T11:28:05;43.40;;;40.50;;
56285;SDS011;42191;47.562;9.686;2023-02-28T11:30:49;44.47;;;41.55;;
56285;SDS011;42191;47.562;9.686;2023-02-28T11:33:51;43.88;;;40.97;;
56285;SDS011;42191;47.562;9.686;2023-02-28T11:36:22;44.92;;;41.92;;
56285;SDS011;42191;47.562;9.686;2023-02-28T11:38:55;45.30;;;42.20;;
56285;SDS011;42191;47.562;9.686;2023-02-28T11:44:17;43.67;;;40.58;;
56285;SDS011;42191;47.562;9.686;2023-02-28T11:46:50;43.38;;;40.53;;
56285;SDS011;42191;47.562;9.686;2023-02-28T12:03:04;46.15;;;43.05;;
56285;SDS011;42191;47.562;9.686;2023-02-28T12:05:39;44.38;;;41.53;;
56285;SDS011;42191;47.562;9.686;2023-02-28T12:08:26;43.42;;;40.47;;
56285;SDS011;42191;47.562;9.686;2023-02-28T12:22:43;44.28;;;41.22;;
56285;SDS011;42191;47.562;9.686;2023-02-28T12:28:06;43.97;;;41.00;;
56285;SDS011;42191;47.562;9.686;2023-02-28T12:30:39;44.00;;;40.90;;
56285;SDS011;42191;47.562;9.686;2023-02-28T12:33:24;45.75;;;42.45;;
56285;SDS011;42191;47.562;9.686;2023-02-28T12:35:58;43.60;;;40.60;;
56285;SDS011;42191;47.562;9.686;2023-02-28T12:38:27;43.42;;;40.42;;
56285;SDS011;42191;47.562;9.686;2023-02-28T12:41:03;44.22;;;41.33;;
56285;SDS011;42191;47.562;9.686;2023-02-28T12:43:36;45.45;;;41.85;;
56285;SDS011;42191;47.562;9.686;2023-02-28T12:48:44;42.35;;;39.45;;
56285;SDS011;42191;47.562;9.686;2023-02-28T12:51:15;43.72;;;40.83;;
56285;SDS011;42191;47.562;9.686;2023-02-28T12:53:49;44.42;;;41.42;;
56285;SDS011;42191;47.562;9.686;2023-02-28T12:59:07;45.33;;;42.22;;
56285;SDS011;42191;47.562;9.686;2023-02-28T13:02:00;42.60;;;39.75;;
56285;SDS011;42191;47.562;9.686;2023-02-28T13:07:59;41.88;;;39.08;;
56285;SDS011;42191;47.562;9.686;2023-02-28T13:10:24;44.92;;;41.72;;
56285;SDS011;42191;47.562;9.686;2023-02-28T13:13:17;44.53;;;41.47;;
56285;SDS011;42191;47.562;9.686;2023-02-28T13:15:56;44.53;;;41.47;;
56285;SDS011;42191;47.562;9.686;2023-02-28T13:18:30;45.10;;;42.10;;
56285;SDS011;42191;47.562;9.686;2023-02-28T13:20:58;43.25;;;40.30;;
56285;SDS011;42191;47.562;9.686;2023-02-28T13:26:01;45.25;;;42.25;;
56285;SDS011;42191;47.562;9.686;2023-02-28T13:31:16;43.85;;;40.72;;
56285;SDS011;42191;47.562;9.686;2023-02-28T13:38:47;45.47;;;42.28;;
56285;SDS011;42191;47.562;9.686;2023-02-28T13:49:25;44.22;;;41.22;;
56285;SDS011;42191;47.562;9.686;2023-02-28T13:52:06;44.13;;;41.13;;
56285;SDS011;42191;47.562;9.686;2023-02-28T13:57:48;44.85;;;41.72;;
56285;SDS011;42191;47.562;9.686;2023-02-28T14:03:22;41.72;;;38.88;;
56285;SDS011;42191;47.562;9.686;2023-02-28T14:06:27;42.38;;;39.38;;
56285;SDS011;42191;47.562;9.686;2023-02-28T14:11:39;40.40;;;37.65;;
56285;SDS011;42191;47.562;9.686;2023-02-28T14:14:07;40.30;;;37.50;;
56285;SDS011;42191;47.562;9.686;2023-02-28T14:16:54;41.05;;;38.25;;
56285;SDS011;42191;47.562;9.686;2023-02-28T14:27:32;37.75;;;35.25;;
56285;SDS011;42191;47.562;9.686;2023-02-28T14:30:04;38.93;;;36.23;;
56285;SDS011;42191;47.562;9.686;2023-02-28T14:35:20;38.90;;;36.35;;
56285;SDS011;42191;47.562;9.686;2023-02-28T14:37:51;37.90;;;35.38;;
56285;SDS011;42191;47.562;9.686;2023-02-28T14:40:29;38.15;;;35.55;;
56285;SDS011;42191;47.562;9.686;2023-02-28T14:43:01;39.42;;;36.78;;
56285;SDS011;42191;47.562;9.686;2023-02-28T14:45:32;36.65;;;34.13;;
56285;SDS011;42191;47.562;9.686;2023-02-28T14:48:01;39.25;;;36.65;;
56285;SDS011;42191;47.562;9.686;2023-02-28T14:50:30;37.67;;;35.08;;
56285;SDS011;42191;47.562;9.686;2023-02-28T14:52:58;39.85;;;37.05;;
56285;SDS011;42191;47.562;9.686;2023-02-28T14:55:32;37.53;;;34.67;;
56285;SDS011;42191;47.562;9.686;2023-02-28T14:58:01;37.40;;;34.83;;
56285;SDS011;42191;47.562;9.686;2023-02-28T15:00:34;38.75;;;36.13;;
56285;SDS011;42191;47.562;9.686;2023-02-28T15:03:17;37.85;;;35.15;;
56285;SDS011;42191;47.562;9.686;2023-02-28T15:05:52;38.63;;;35.88;;
56285;SDS011;42191;47.562;9.686;2023-02-28T15:10:58;39.90;;;37.20;;
56285;SDS011;42191;47.562;9.686;2023-02-28T15:13:34;40.35;;;37.58;;
56285;SDS011;42191;47.562;9.686;2023-02-28T15:16:10;40.65;;;37.83;;
56285;SDS011;42191;47.562;9.686;2023-02-28T15:21:27;40.45;;;37.55;;
56285;SDS011;42191;47.562;9.686;2023-02-28T15:26:39;40.15;;;37.30;;
56285;SDS011;42191;47.562;9.686;2023-02-28T15:29:14;41.40;;;38.50;;
56285;SDS011;42191;47.562;9.686;2023-02-28T15:31:46;42.78;;;39.80;;
56285;SDS011;42191;47.562;9.686;2023-02-28T15:34:19;40.78;;;37.88;;
56285;SDS011;42191;47.562;9.686;2023-02-28T15:36:47;39.47;;;36.57;;
56285;SDS011;42191;47.562;9.686;2023-02-28T15:39:24;44.45;;;41.25;;
56285;SDS011;42191;47.562;9.686;2023-02-28T15:41:52;43.33;;;40.33;;
56285;SDS011;42191;47.562;9.686;2023-02-28T15:44:38;43.30;;;40.30;;
56285;SDS011;42191;47.562;9.686;2023-02-28T15:47:06;45.08;;;41.88;;
56285;SDS011;42191;47.562;9.686;2023-02-28T15:50:02;42.75;;;39.75;;
56285;SDS011;42191;47.562;9.686;2023-02-28T15:55:11;44.75;;;41.40;;
56285;SDS011;42191;47.562;9.686;2023-02-28T15:57:45;45.22;;;42.00;;
56285;SDS011;42191;47.562;9.686;2023-02-28T16:00:16;43.25;;;40.22;;
56285;SDS011;42191;47.562;9.686;2023-02-28T16:02:50;46.55;;;43.22;;
56285;SDS011;42191;47.562;9.686;2023-02-28T16:05:18;44.95;;;41.75;;
56285;SDS011;42191;47.562;9.686;2023-02-28T16:07:46;47.15;;;43.67;;
56285;SDS011;42191;47.562;9.686;2023-02-28T16:10:13;48.25;;;44.70;;
56285;SDS011;42191;47.562;9.686;2023-02-28T16:12:40;46.90;;;43.47;;
56285;SDS011;42191;47.562;9.686;2023-02-28T16:17:45;46.08;;;42.83;;
56285;SDS011;42191;47.562;9.686;2023-02-28T16:22:48;46.13;;;42.88;;
56285;SDS011;42191;47.562;9.686;2023-02-28T16:25:15;46.30;;;42.92;;
56285;SDS011;42191;47.562;9.686;2023-02-28T16:27:42;47.90;;;44.40;;
56285;SDS011;42191;47.562;9.686;2023-02-28T16:30:19;46.83;;;43.38;;
56285;SDS011;42191;47.562;9.686;2023-02-28T16:32:50;48.30;;;44.80;;
56285;SDS011;42191;47.562;9.686;2023-02-28T16:35:17;47.95;;;44.35;;
56285;SDS011;42191;47.562;9.686;2023-02-28T16:37:44;47.13;;;43.67;;
56285;SDS011;42191;47.562;9.686;2023-02-28T16:40:14;48.97;;;45.38;;
56285;SDS011;42191;47.562;9.686;2023-02-28T16:42:42;46.43;;;43.13;;
56285;SDS011;42191;47.562;9.686;2023-02-28T16:45:20;47.90;;;44.42;;
56285;SDS011;42191;47.562;9.686;2023-02-28T16:47:52;50.05;;;46.45;;
56285;SDS011;42191;47.562;9.686;2023-02-28T16:50:27;46.78;;;43.28;;
56285;SDS011;42191;47.562;9.686;2023-02-28T16:53:00;49.50;;;46.00;;
56285;SDS011;42191;47.562;9.686;2023-02-28T16:55:26;49.30;;;45.67;;
56285;SDS011;42191;47.562;9.686;2023-02-28T16:57:59;48.63;;;44.90;;
56285;SDS011;42191;47.562;9.686;2023-02-28T17:00:27;48.92;;;45.33;;
56285;SDS011;42191;47.562;9.686;2023-02-28T17:02:54;48.47;;;44.97;;
56285;SDS011;42191;47.562;9.686;2023-02-28T17:05:21;50.20;;;46.53;;